Time;durP1;ratioP1;P1;durP2;ratioP2;P2;SDS_P1;SDS_P2;PMS_P1;PMS_P2;Temp;Humidity;BMP_temperature;BMP_pressure;BME280_temperature;BME280_humidity;BME280_pressure;Samples;Min_cycle;Max_cycle;Signal;HPM_P1;HPM_P2
2021/04/17 00:00:39;;;;;;;13.45;8.82;;;2.30;62.30;;;;;;4979341;28;20523;-63
2021/04/17 00:03:10;;;;;;;15.55;9.77;;;2.30;62.40;;;;;;4978973;28;20213;-63
2021/04/17 00:05:42;;;;;;;13.95;8.60;;;2.30;63.20;;;;;;4977934;28;20087;-63
2021/04/17 00:08:13;;;;;;;14.13;9.15;;;2.30;62.50;;;;;;4977518;28;20089;-64
2021/04/17 00:10:41;;;;;;;16.52;9.63;;;2.30;62.50;;;;;;4973246;28;20039;-63
2021/04/17 00:13:11;;;;;;;12.77;8.75;;;2.30;62.10;;;;;;4978081;28;20543;-63
2021/04/17 00:15:40;;;;;;;14.10;8.80;;;2.20;62.30;;;;;;4980806;28;20890;-65
2021/04/17 00:18:05;;;;;;;13.93;8.95;;;2.20;62.50;;;;;;4980691;28;20459;-64
2021/04/17 00:20:33;;;;;;;13.50;9.50;;;2.20;62.40;;;;;;4979362;28;20041;-64
2021/04/17 00:22:59;;;;;;;11.80;8.60;;;2.10;62.50;;;;;;4978915;28;20042;-64
2021/04/17 00:25:27;;;;;;;13.20;8.82;;;2.00;62.50;;;;;;4983033;28;20030;-63
2021/04/17 00:27:57;;;;;;;12.77;8.13;;;2.00;62.60;;;;;;4983045;28;20391;-63
2021/04/17 00:30:28;;;;;;;14.00;8.93;;;2.00;62.90;;;;;;5001862;28;20181;-65
2021/04/17 00:32:56;;;;;;;12.75;8.23;;;1.90;63.00;;;;;;4981034;28;20034;-63
2021/04/17 00:35:26;;;;;;;10.75;7.80;;;1.90;63.00;;;;;;4991868;28;20146;-64
2021/04/17 00:37:54;;;;;;;12.48;8.65;;;1.80;63.20;;;;;;4981439;28;20039;-63
2021/04/17 00:40:27;;;;;;;10.82;8.13;;;1.80;63.10;;;;;;5001585;28;20030;-63
2021/04/17 00:42:52;;;;;;;11.80;8.70;;;1.70;63.30;;;;;;4981157;28;20031;-62
2021/04/17 00:45:18;;;;;;;12.90;8.07;;;1.80;63.20;;;;;;4982362;28;20031;-64
2021/04/17 00:47:46;;;;;;;13.48;9.02;;;1.70;63.10;;;;;;4980344;28;20035;-64
2021/04/17 00:50:17;;;;;;;12.27;8.57;;;1.70;64.00;;;;;;4997867;28;20035;-64
2021/04/17 00:52:47;;;;;;;13.10;8.93;;;1.70;63.40;;;;;;4982230;28;20069;-63
2021/04/17 00:55:15;;;;;;;13.43;9.45;;;1.70;63.30;;;;;;4999321;28;20034;-64
2021/04/17 00:57:45;;;;;;;14.00;9.10;;;1.70;64.10;;;;;;4982523;28;20034;-64
2021/04/17 01:00:15;;;;;;;12.75;8.80;;;1.70;63.60;;;;;;4983381;28;20037;-63
2021/04/17 01:02:47;;;;;;;13.65;9.80;;;1.70;63.60;;;;;;4978753;28;20507;-64
2021/04/17 01:05:20;;;;;;;12.88;9.07;;;1.60;64.60;;;;;;4982125;28;20046;-64
2021/04/17 01:07:53;;;;;;;14.43;9.10;;;1.60;63.70;;;;;;4981589;28;20038;-65
2021/04/17 01:10:45;;;;;;;13.27;9.07;;;1.60;63.70;;;;;;4983116;28;20039;-64
2021/04/17 01:13:14;;;;;;;11.70;8.82;;;1.60;64.50;;;;;;4980809;28;20065;-64
2021/04/17 01:15:45;;;;;;;13.30;8.88;;;1.60;63.90;;;;;;4980742;28;20046;-64
2021/04/17 01:18:16;;;;;;;13.68;9.25;;;1.60;63.90;;;;;;4984535;28;20100;-64
2021/04/17 01:20:51;;;;;;;16.20;10.00;;;1.50;64.70;;;;;;4981467;28;20038;-64
2021/04/17 01:23:39;;;;;;;15.43;10.02;;;1.50;63.90;;;;;;4981805;28;20431;-64
2021/04/17 01:26:11;;;;;;;13.90;9.07;;;1.50;64.80;;;;;;5002307;28;20026;-64
2021/04/17 01:28:42;;;;;;;13.52;9.23;;;1.40;64.10;;;;;;4981752;28;20101;-63
2021/04/17 01:31:14;;;;;;;13.75;9.20;;;1.40;64.20;;;;;;4981612;28;20040;-64
2021/04/17 01:33:47;;;;;;;12.98;8.73;;;1.40;64.20;;;;;;4980563;28;20030;-64
2021/04/17 01:36:16;;;;;;;14.23;8.85;;;1.30;64.20;;;;;;4978746;28;20027;-64
2021/04/17 01:39:02;;;;;;;14.20;9.15;;;1.30;64.20;;;;;;4981376;28;20035;-63
2021/04/17 01:41:36;;;;;;;14.65;8.82;;;1.30;64.40;;;;;;4981245;28;20062;-64
2021/04/17 01:44:06;;;;;;;14.80;8.90;;;1.30;64.10;;;;;;4982440;28;20673;-64
2021/04/17 01:46:40;;;;;;;13.20;8.80;;;1.30;63.90;;;;;;4978642;28;20066;-64
2021/04/17 01:49:09;;;;;;;14.20;9.10;;;1.30;64.10;;;;;;5001595;28;20508;-64
2021/04/17 01:51:40;;;;;;;15.20;9.85;;;1.30;64.00;;;;;;4981642;28;20828;-65
2021/04/17 01:54:20;;;;;;;13.88;9.00;;;1.30;64.00;;;;;;4979900;28;20042;-64
2021/04/17 01:56:52;;;;;;;14.38;9.18;;;1.30;64.40;;;;;;4979332;28;20500;-63
2021/04/17 01:59:21;;;;;;;14.45;9.13;;;1.30;64.00;;;;;;4980493;28;20577;-63
2021/04/17 02:01:48;;;;;;;12.80;9.10;;;1.20;64.00;;;;;;4999301;28;20027;-64
2021/04/17 02:04:13;;;;;;;12.93;9.00;;;1.30;63.90;;;;;;4981911;28;20113;-64
2021/04/17 02:06:41;;;;;;;13.73;9.35;;;1.30;63.90;;;;;;4995971;28;20130;-64
2021/04/17 02:09:09;;;;;;;14.40;9.27;;;1.20;63.90;;;;;;4981444;28;20034;-64
2021/04/17 02:11:40;;;;;;;16.08;9.77;;;1.20;63.90;;;;;;4994817;28;20054;-65
2021/04/17 02:14:13;;;;;;;14.68;8.50;;;1.10;63.90;;;;;;4983050;28;20398;-63
2021/04/17 02:17:27;;;;;;;15.75;10.18;;;1.10;64.00;;;;;;4980867;28;20034;-64
2021/04/17 02:20:39;;;;;;;16.67;9.52;;;1.10;64.90;;;;;;4975847;28;20053;-64
2021/04/17 02:23:05;;;;;;;13.20;8.73;;;1.00;65.20;;;;;;4954460;28;20146;-64
2021/04/17 02:25:34;;;;;;;15.35;9.73;;;0.90;64.10;;;;;;4980512;28;20118;-64
2021/04/17 02:28:04;;;;;;;15.25;9.60;;;0.90;64.60;;;;;;4992063;28;20061;-64
2021/04/17 02:30:30;;;;;;;14.35;9.27;;;0.80;64.60;;;;;;4980588;28;20055;-65
2021/04/17 02:33:02;;;;;;;15.88;9.50;;;0.80;64.60;;;;;;4982328;28;20638;-64
2021/04/17 02:35:32;;;;;;;16.55;9.82;;;0.80;64.80;;;;;;4979693;28;20077;-64
2021/04/17 02:38:00;;;;;;;14.57;9.85;;;0.80;65.00;;;;;;4980488;28;20384;-65
2021/04/17 02:40:28;;;;;;;14.07;9.48;;;0.80;65.10;;;;;;4980415;28;20034;-65
2021/04/17 02:42:54;;;;;;;14.93;9.77;;;0.80;65.30;;;;;;4982757;28;20031;-64
2021/04/17 02:45:24;;;;;;;15.05;9.60;;;0.70;65.30;;;;;;4980326;28;20113;-65
2021/04/17 02:47:56;;;;;;;14.35;10.00;;;0.70;65.60;;;;;;4980351;28;20054;-64
2021/04/17 02:50:23;;;;;;;15.38;10.00;;;0.70;65.60;;;;;;4979548;28;20035;-66
2021/04/17 02:52:54;;;;;;;16.60;10.38;;;0.70;65.80;;;;;;4980514;28;20027;-64
2021/04/17 02:55:20;;;;;;;16.98;10.13;;;0.70;66.00;;;;;;4981462;28;20073;-64
2021/04/17 02:57:47;;;;;;;14.63;9.60;;;0.70;66.70;;;;;;4995342;28;20034;-64
2021/04/17 03:00:17;;;;;;;14.82;9.40;;;0.70;65.80;;;;;;4985284;28;20150;-64
2021/04/17 03:02:48;;;;;;;16.55;9.90;;;0.70;65.70;;;;;;4978060;28;20080;-64
2021/04/17 03:05:19;;;;;;;15.82;9.30;;;0.70;65.70;;;;;;4988721;28;20614;-64
2021/04/17 03:07:52;;;;;;;15.13;9.30;;;0.70;65.60;;;;;;4978387;28;20077;-64
2021/04/17 03:10:20;;;;;;;15.10;9.93;;;0.70;65.60;;;;;;4978644;28;20667;-64
2021/04/17 03:12:46;;;;;;;16.15;10.15;;;0.60;65.30;;;;;;4978009;28;20023;-64
2021/04/17 03:15:17;;;;;;;15.15;9.60;;;0.60;65.40;;;;;;5002249;28;20038;-64
2021/04/17 03:17:45;;;;;;;15.68;9.68;;;0.60;65.60;;;;;;4980545;28;20121;-64
2021/04/17 03:20:14;;;;;;;18.08;10.32;;;0.60;65.50;;;;;;4977999;28;20030;-65
2021/04/17 03:22:42;;;;;;;17.15;10.88;;;0.50;65.60;;;;;;4976849;28;20035;-65
2021/04/17 03:25:12;;;;;;;16.08;10.43;;;0.50;65.80;;;;;;4979039;28;20431;-64
2021/04/17 03:27:42;;;;;;;17.48;10.50;;;0.50;66.20;;;;;;4977984;28;20118;-64
2021/04/17 03:30:16;;;;;;;19.02;11.70;;;0.50;66.30;;;;;;4998990;28;20068;-64
2021/04/17 03:32:46;;;;;;;19.20;11.02;;;0.50;66.50;;;;;;4979245;28;20089;-64
2021/04/17 03:35:16;;;;;;;17.80;10.98;;;0.50;66.80;;;;;;4992953;28;20550;-65
2021/04/17 03:37:46;;;;;;;16.33;9.82;;;0.50;66.80;;;;;;4978049;28;20664;-65
2021/04/17 03:40:14;;;;;;;16.88;10.25;;;0.50;67.00;;;;;;4979875;28;20031;-65
2021/04/17 03:42:42;;;;;;;17.42;10.82;;;0.40;67.00;;;;;;4977161;28;20148;-65
2021/04/17 03:45:14;;;;;;;17.90;11.05;;;0.40;67.20;;;;;;4989168;28;20050;-65
2021/04/17 03:47:44;;;;;;;19.08;10.90;;;0.40;67.50;;;;;;4979426;28;20488;-64
2021/04/17 03:50:13;;;;;;;18.02;11.45;;;0.40;67.70;;;;;;4979093;28;20034;-65
2021/04/17 03:52:46;;;;;;;17.67;10.73;;;0.40;67.60;;;;;;4982068;28;20046;-64
2021/04/17 03:55:17;;;;;;;21.02;11.45;;;0.40;67.90;;;;;;4983437;28;20081;-64
2021/04/17 03:57:45;;;;;;;18.77;11.45;;;0.40;67.90;;;;;;4997381;28;20041;-65
2021/04/17 04:00:19;;;;;;;19.50;11.82;;;0.40;67.90;;;;;;4979782;28;20507;-66
2021/04/17 04:02:49;;;;;;;23.60;13.15;;;0.40;68.20;;;;;;4980054;28;20165;-64
2021/04/17 04:05:16;;;;;;;21.92;13.02;;;0.50;68.30;;;;;;4978839;28;20039;-65
2021/04/17 04:07:47;;;;;;;24.25;13.88;;;0.50;68.30;;;;;;4976118;28;20599;-64
2021/04/17 04:10:13;;;;;;;20.80;12.52;;;0.50;68.50;;;;;;4978629;28;20046;-64
2021/04/17 04:12:43;;;;;;;18.63;12.35;;;0.50;68.50;;;;;;4975737;28;20030;-65
2021/04/17 04:15:15;;;;;;;20.63;12.00;;;0.50;68.60;;;;;;4980222;28;20037;-64
2021/04/17 04:17:45;;;;;;;19.98;12.20;;;0.50;69.50;;;;;;4979626;28;20046;-64
2021/04/17 04:20:14;;;;;;;19.17;12.07;;;0.50;68.40;;;;;;4978540;28;20618;-66
2021/04/17 04:22:43;;;;;;;17.83;11.38;;;0.50;68.60;;;;;;4977794;28;20042;-64
2021/04/17 04:25:14;;;;;;;21.15;12.55;;;0.50;68.70;;;;;;4977673;28;20121;-66
2021/04/17 04:27:42;;;;;;;20.85;12.85;;;0.60;69.00;;;;;;4978352;28;20038;-65
2021/04/17 04:30:11;;;;;;;21.13;12.45;;;0.50;68.80;;;;;;4981674;28;20027;-65
2021/04/17 04:32:39;;;;;;;20.00;12.05;;;0.60;69.20;;;;;;4979752;28;20069;-64
2021/04/17 04:35:11;;;;;;;23.48;12.82;;;0.60;68.90;;;;;;4976962;28;20068;-65
2021/04/17 04:37:38;;;;;;;23.33;13.13;;;0.60;68.90;;;;;;4978360;28;20038;-65
2021/04/17 04:40:08;;;;;;;20.85;12.40;;;0.70;68.80;;;;;;4977116;28;20531;-64
2021/04/17 04:42:38;;;;;;;21.00;12.85;;;0.60;68.80;;;;;;4977221;28;20113;-65
2021/04/17 04:45:07;;;;;;;22.27;12.75;;;0.60;68.80;;;;;;4978479;28;20463;-65
2021/04/17 04:47:38;;;;;;;20.02;12.27;;;0.60;68.90;;;;;;4976579;28;20035;-65
2021/04/17 04:50:08;;;;;;;19.27;12.40;;;0.60;69.20;;;;;;4987586;28;20023;-64
2021/04/17 04:52:38;;;;;;;22.88;13.55;;;0.60;69.50;;;;;;4977630;28;20077;-64
2021/04/17 04:55:11;;;;;;;22.75;13.48;;;0.60;69.30;;;;;;4979393;28;20771;-64
2021/04/17 04:57:41;;;;;;;24.40;14.40;;;0.70;69.60;;;;;;4979557;28;20035;-64
2021/04/17 05:00:13;;;;;;;25.85;14.93;;;0.70;69.80;;;;;;4978936;28;20567;-64
2021/04/17 05:02:41;;;;;;;25.85;15.48;;;0.70;69.90;;;;;;4977509;28;20090;-64
2021/04/17 05:05:11;;;;;;;25.05;14.80;;;0.70;69.70;;;;;;4975635;28;20172;-65
2021/04/17 05:07:39;;;;;;;26.25;14.10;;;0.70;69.50;;;;;;4979044;28;20110;-65
2021/04/17 05:10:08;;;;;;;23.58;13.68;;;0.80;69.40;;;;;;4997064;28;20030;-64
2021/04/17 05:12:33;;;;;;;26.48;15.07;;;0.80;69.30;;;;;;4977636;28;20476;-64
2021/04/17 05:15:04;;;;;;;25.55;13.55;;;0.90;69.30;;;;;;4983803;28;20037;-64
2021/04/17 05:17:30;;;;;;;23.75;14.63;;;0.90;69.30;;;;;;4982588;28;20035;-65
2021/04/17 05:19:58;;;;;;;20.60;11.90;;;1.00;69.40;;;;;;4983255;28;20046;-64
2021/04/17 05:22:30;;;;;;;23.58;13.70;;;1.00;69.20;;;;;;4982510;28;20126;-65
2021/04/17 05:25:00;;;;;;;21.73;12.25;;;1.10;69.40;;;;;;4998461;28;20038;-64
2021/04/17 05:27:26;;;;;;;20.70;12.07;;;1.10;69.30;;;;;;4978868;28;20653;-64
2021/04/17 05:29:59;;;;;;;27.38;14.60;;;1.20;69.00;;;;;;5008579;28;20033;-64
2021/04/17 05:32:27;;;;;;;37.70;19.35;;;1.30;69.10;;;;;;4979368;28;20031;-65
2021/04/17 05:34:59;;;;;;;41.30;20.50;;;1.30;69.10;;;;;;4977933;28;20117;-63
2021/04/17 05:37:29;;;;;;;42.13;23.55;;;1.40;69.10;;;;;;4980894;28;20046;-64
2021/04/17 05:39:57;;;;;;;34.33;19.52;;;1.40;69.10;;;;;;4979854;28;20042;-64
2021/04/17 05:42:27;;;;;;;26.77;15.98;;;1.50;69.00;;;;;;4983322;28;20038;-65
2021/04/17 05:44:57;;;;;;;26.92;14.65;;;1.60;69.10;;;;;;4980403;28;20046;-64
2021/04/17 05:47:25;;;;;;;26.90;14.93;;;1.60;69.10;;;;;;4976328;28;20077;-64
2021/04/17 05:49:53;;;;;;;26.50;15.20;;;1.70;69.10;;;;;;4994360;28;20039;-64
2021/04/17 05:52:23;;;;;;;23.75;14.82;;;1.70;69.10;;;;;;4970392;28;20039;-65
2021/04/17 05:54:51;;;;;;;26.73;16.25;;;1.80;69.30;;;;;;4965385;28;20035;-63
2021/04/17 05:57:19;;;;;;;27.33;15.88;;;1.90;69.40;;;;;;4963040;28;20042;-63
2021/04/17 05:59:45;;;;;;;26.00;15.15;;;1.90;69.30;;;;;;4963948;28;20698;-66
2021/04/17 06:02:15;;;;;;;27.15;16.38;;;1.90;69.40;;;;;;4976556;28;20066;-65
2021/04/17 06:04:45;;;;;;;33.00;19.83;;;2.00;69.50;;;;;;4963649;28;20113;-64
2021/04/17 06:07:14;;;;;;;33.08;19.27;;;2.00;69.40;;;;;;4964276;28;20638;-64
2021/04/17 06:09:39;;;;;;;35.42;19.50;;;2.10;69.70;;;;;;4974746;28;20034;-65
2021/04/17 06:12:08;;;;;;;37.17;20.23;;;2.20;69.60;;;;;;4964978;28;20057;-65
2021/04/17 06:14:33;;;;;;;31.48;18.42;;;2.30;69.70;;;;;;4966752;28;20169;-64
2021/04/17 06:16:59;;;;;;;30.15;17.05;;;2.40;69.80;;;;;;4964263;28;20134;-65
2021/04/17 06:19:24;;;;;;;29.83;17.20;;;2.40;69.60;;;;;;4965571;28;20108;-64
2021/04/17 06:21:52;;;;;;;28.13;15.75;;;2.50;69.80;;;;;;4979986;28;20050;-64
2021/04/17 06:24:23;;;;;;;27.88;15.70;;;2.50;69.80;;;;;;4969701;28;20571;-65
2021/04/17 06:26:51;;;;;;;26.58;16.42;;;2.60;69.70;;;;;;4966970;28;20062;-65
2021/04/17 06:29:22;;;;;;;27.77;15.65;;;2.70;70.10;;;;;;4967863;28;20093;-63
2021/04/17 06:31:47;;;;;;;28.45;15.88;;;2.80;70.00;;;;;;4969470;28;20030;-65
2021/04/17 06:34:17;;;;;;;29.10;17.10;;;2.90;70.10;;;;;;4965644;28;20099;-63
2021/04/17 06:36:45;;;;;;;27.92;16.65;;;3.00;70.50;;;;;;4967047;28;20118;-62
2021/04/17 06:39:16;;;;;;;29.98;17.65;;;3.00;70.20;;;;;;4966048;28;20117;-65
2021/04/17 06:41:48;;;;;;;30.65;16.52;;;3.10;70.30;;;;;;4972416;28;20034;-63
2021/04/17 06:44:15;;;;;;;29.05;17.73;;;3.20;70.30;;;;;;4971860;28;20455;-65
2021/04/17 06:46:47;;;;;;;30.77;17.52;;;3.20;70.80;;;;;;4968914;28;20044;-65
2021/04/17 06:49:15;;;;;;;27.85;16.05;;;3.30;70.80;;;;;;4967822;28;20057;-64
2021/04/17 06:51:52;;;;;;;30.48;16.83;;;3.40;70.60;;;;;;4967469;28;20050;-65
2021/04/17 06:54:25;;;;;;;28.77;17.00;;;3.50;70.60;;;;;;4967275;28;20038;-64
2021/04/17 06:56:56;;;;;;;26.75;15.20;;;3.50;70.90;;;;;;4966955;28;20035;-65
2021/04/17 06:59:28;;;;;;;29.55;17.02;;;3.60;70.40;;;;;;4968763;28;20027;-64
2021/04/17 07:01:56;;;;;;;29.85;18.10;;;3.70;70.50;;;;;;4968207;28;20096;-65
2021/04/17 07:04:25;;;;;;;29.98;16.85;;;3.70;70.70;;;;;;4967933;28;20030;-64
2021/04/17 07:06:53;;;;;;;28.40;15.45;;;3.80;70.30;;;;;;4980563;28;20039;-64
2021/04/17 07:09:25;;;;;;;27.10;15.45;;;3.90;70.30;;;;;;4976962;28;20559;-65
2021/04/17 07:11:53;;;;;;;29.10;16.42;;;3.90;70.50;;;;;;4978952;28;20052;-65
2021/04/17 07:14:20;;;;;;;27.70;16.48;;;4.00;70.10;;;;;;4978862;28;20570;-64
2021/04/17 07:17:06;;;;;;;26.63;16.02;;;4.00;70.20;;;;;;4981612;28;20039;-64
2021/04/17 07:19:46;;;;;;;29.83;16.08;;;4.10;70.80;;;;;;4979338;28;20030;-65
2021/04/17 07:22:24;;;;;;;26.60;16.52;;;4.20;70.90;;;;;;4979524;28;20492;-64
2021/04/17 07:24:57;;;;;;;30.95;16.85;;;4.20;70.80;;;;;;4980703;28;20045;-64
2021/04/17 07:27:49;;;;;;;29.10;16.40;;;4.30;70.50;;;;;;4980646;28;20047;-64
2021/04/17 07:30:17;;;;;;;27.65;16.67;;;4.40;71.50;;;;;;4981538;28;20077;-64
2021/04/17 07:33:00;;;;;;;29.00;16.50;;;4.40;71.70;;;;;;4977773;28;20658;-64
2021/04/17 07:35:31;;;;;;;30.02;17.52;;;4.50;70.70;;;;;;4997441;28;20065;-65
2021/04/17 07:38:14;;;;;;;31.70;17.98;;;4.50;70.70;;;;;;4979993;28;20109;-64
2021/04/17 07:40:47;;;;;;;29.88;16.80;;;4.60;72.00;;;;;;4979869;28;20034;-64
2021/04/17 07:43:17;;;;;;;29.45;16.67;;;4.70;71.20;;;;;;4980404;28;20062;-65
2021/04/17 07:45:45;;;;;;;29.38;16.75;;;4.70;71.00;;;;;;4980180;28;20038;-64
2021/04/17 07:48:28;;;;;;;31.52;17.35;;;4.80;71.30;;;;;;4992135;28;20031;-65
2021/04/17 07:50:59;;;;;;;30.45;17.02;;;4.90;72.20;;;;;;4981538;28;20030;-65
2021/04/17 07:53:31;;;;;;;29.30;18.00;;;5.00;71.50;;;;;;4982215;28;20126;-64
2021/04/17 07:56:34;;;;;;;31.27;16.83;;;5.10;71.50;;;;;;4979919;28;20093;-64
2021/04/17 07:59:05;;;;;;;29.13;17.15;;;5.20;72.60;;;;;;4981967;28;20043;-64
2021/04/17 08:01:33;;;;;;;29.33;17.40;;;5.30;71.40;;;;;;4983378;28;20410;-64
2021/04/17 08:04:00;;;;;;;30.98;18.20;;;5.40;72.10;;;;;;4997862;28;20053;-64
2021/04/17 08:06:32;;;;;;;29.38;16.45;;;5.40;71.20;;;;;;4978546;28;20047;-64
2021/04/17 08:09:00;;;;;;;31.73;17.83;;;5.60;71.20;;;;;;4980811;28;20039;-65
2021/04/17 08:11:32;;;;;;;29.98;17.95;;;5.60;71.20;;;;;;4979653;28;20026;-65
2021/04/17 08:13:58;;;;;;;29.70;17.75;;;5.70;71.10;;;;;;4999505;28;20447;-65
2021/04/17 08:16:28;;;;;;;31.55;18.23;;;5.80;70.80;;;;;;4979457;28;20027;-64
2021/04/17 08:18:56;;;;;;;31.02;16.95;;;5.80;71.00;;;;;;4978885;28;20038;-65
2021/04/17 08:21:22;;;;;;;29.67;17.33;;;5.90;71.00;;;;;;4979644;28;20053;-65
2021/04/17 08:23:52;;;;;;;29.75;18.05;;;6.00;71.90;;;;;;4979538;28;20031;-65
2021/04/17 08:26:21;;;;;;;30.90;17.92;;;6.00;71.30;;;;;;4978485;28;20042;-65
2021/04/17 08:28:49;;;;;;;30.90;17.73;;;6.10;70.90;;;;;;4979866;28;20039;-65
2021/04/17 08:31:31;;;;;;;28.05;17.25;;;6.20;71.00;;;;;;5000006;28;20561;-65
2021/04/17 08:34:16;;;;;;;27.02;16.60;;;6.30;71.30;;;;;;4977754;28;20046;-65
2021/04/17 08:36:50;;;;;;;27.70;16.65;;;6.40;71.50;;;;;;4978109;28;20027;-64
2021/04/17 08:39:39;;;;;;;29.08;16.25;;;6.50;70.60;;;;;;4980829;28;20038;-65
2021/04/17 08:42:10;;;;;;;28.08;16.25;;;6.60;70.80;;;;;;4979104;28;20038;-65
2021/04/17 08:44:43;;;;;;;28.58;16.88;;;6.70;69.90;;;;;;4980462;28;20142;-65
2021/04/17 08:47:16;;;;;;;28.25;16.58;;;6.80;69.90;;;;;;4986537;28;20074;-65
2021/04/17 08:49:46;;;;;;;26.70;16.27;;;6.90;69.70;;;;;;4984247;28;20125;-65
2021/04/17 08:52:23;;;;;;;26.90;16.17;;;6.90;69.40;;;;;;4984560;28;20037;-65
2021/04/17 08:55:01;;;;;;;27.23;15.95;;;7.00;69.20;;;;;;4982630;28;20117;-64
2021/04/17 08:57:30;;;;;;;30.13;16.45;;;7.00;68.90;;;;;;4982998;28;20037;-64
2021/04/17 09:00:02;;;;;;;25.73;15.77;;;7.10;68.50;;;;;;4982913;28;20046;-65
2021/04/17 09:02:29;;;;;;;25.77;15.63;;;7.20;68.30;;;;;;4982771;28;20419;-65
2021/04/17 09:05:06;;;;;;;26.77;16.20;;;7.20;68.10;;;;;;4983297;28;20030;-65
2021/04/17 09:07:34;;;;;;;25.02;15.93;;;7.30;67.80;;;;;;4982174;28;20030;-64
2021/04/17 09:10:25;;;;;;;23.42;14.70;;;7.30;67.50;;;;;;4982495;28;20092;-65
2021/04/17 09:13:17;;;;;;;21.77;14.05;;;7.40;67.70;;;;;;4982186;28;20496;-64
2021/04/17 09:16:09;;;;;;;22.73;14.15;;;7.50;67.40;;;;;;4983137;28;20069;-64
2021/04/17 09:18:38;;;;;;;21.70;13.80;;;7.60;67.30;;;;;;4981123;28;20134;-64
2021/04/17 09:21:18;;;;;;;23.17;14.32;;;7.60;67.40;;;;;;4983448;28;20039;-63
2021/04/17 09:23:49;;;;;;;22.33;15.07;;;7.70;66.80;;;;;;4984111;28;20080;-64
2021/04/17 09:26:36;;;;;;;22.58;13.95;;;7.80;66.70;;;;;;5004554;28;20039;-64
2021/04/17 09:29:21;;;;;;;18.70;12.45;;;7.90;66.60;;;;;;4983645;28;20344;-65
2021/04/17 09:31:52;;;;;;;20.23;12.23;;;8.00;66.40;;;;;;4983882;28;20038;-65
2021/04/17 09:34:20;;;;;;;20.08;13.13;;;8.20;66.00;;;;;;4984891;28;20069;-64
2021/04/17 09:36:51;;;;;;;19.63;12.55;;;8.30;65.60;;;;;;5003042;28;20041;-65
2021/04/17 09:39:32;;;;;;;16.25;11.02;;;8.40;65.20;;;;;;4983179;28;20143;-65
2021/04/17 09:42:03;;;;;;;17.70;11.57;;;8.50;64.60;;;;;;4983589;28;20039;-64
2021/04/17 09:44:45;;;;;;;18.10;12.73;;;8.50;64.30;;;;;;4983578;28;20519;-64
2021/04/17 09:47:14;;;;;;;17.85;11.73;;;8.60;64.00;;;;;;4976794;28;20043;-64
2021/04/17 09:49:45;;;;;;;14.88;10.65;;;8.60;63.40;;;;;;4982922;28;20027;-63
2021/04/17 09:52:19;;;;;;;14.75;10.00;;;8.70;63.30;;;;;;4984168;28;20073;-64
2021/04/17 09:54:49;;;;;;;14.15;10.13;;;8.80;62.70;;;;;;4981347;28;20471;-64
2021/04/17 09:57:15;;;;;;;13.75;9.95;;;8.80;62.60;;;;;;4978328;28;20046;-64
2021/04/17 09:59:57;;;;;;;16.30;10.57;;;8.90;62.40;;;;;;4996791;28;20109;-64
2021/04/17 10:02:24;;;;;;;13.32;9.52;;;9.00;60.00;;;;;;4981857;28;20045;-64
2021/04/17 10:04:51;;;;;;;13.88;9.25;;;9.00;61.00;;;;;;4981011;28;20045;-64
2021/04/17 10:07:18;;;;;;;11.75;8.63;;;9.00;61.30;;;;;;4982637;28;20126;-64
2021/04/17 10:10:05;;;;;;;10.80;8.10;;;9.10;61.30;;;;;;4986338;28;20035;-64
2021/04/17 10:12:33;;;;;;;10.10;7.68;;;9.20;60.30;;;;;;4980143;28;20066;-64
2021/04/17 10:15:22;;;;;;;8.90;7.32;;;9.30;60.90;;;;;;4981210;28;20042;-64
2021/04/17 10:17:56;;;;;;;8.45;6.35;;;9.50;59.70;;;;;;4980370;28;20081;-64
2021/04/17 10:20:23;;;;;;;8.38;6.45;;;9.60;59.60;;;;;;4982226;28;20047;-65
2021/04/17 10:22:54;;;;;;;10.27;6.43;;;9.70;59.50;;;;;;4982597;28;20035;-64
2021/04/17 10:25:37;;;;;;;8.55;6.40;;;9.80;59.00;;;;;;4982382;28;20038;-64
2021/04/17 10:28:33;;;;;;;11.00;7.40;;;9.90;58.20;;;;;;4982901;28;20035;-64
2021/04/17 10:31:22;;;;;;;9.40;6.68;;;10.00;57.90;;;;;;4983378;28;20483;-65
2021/04/17 10:33:53;;;;;;;8.50;6.47;;;10.10;58.30;;;;;;4982125;28;20031;-64
2021/04/17 10:36:21;;;;;;;7.40;5.95;;;10.20;58.10;;;;;;4982154;28;20050;-64
2021/04/17 10:38:49;;;;;;;11.48;6.32;;;10.20;57.60;;;;;;4980288;28;20035;-65
2021/04/17 10:41:36;;;;;;;7.97;5.68;;;10.20;57.00;;;;;;4980818;28;20503;-65
2021/04/17 10:44:15;;;;;;;9.27;6.28;;;10.30;56.20;;;;;;4982492;28;20042;-65
2021/04/17 10:46:50;;;;;;;9.15;6.30;;;10.30;56.00;;;;;;4981758;28;20034;-65
2021/04/17 10:49:38;;;;;;;10.23;6.00;;;10.30;55.90;;;;;;4981323;28;20042;-65
2021/04/17 10:52:23;;;;;;;6.72;5.57;;;10.30;55.30;;;;;;4979030;28;20250;-65
2021/04/17 10:54:52;;;;;;;;;;;10.30;55.60;;;;;;4981770;28;20369;-65
2021/04/17 10:57:21;;;;;;;7.53;5.57;;;10.30;56.00;;;;;;4981464;28;19925;-64
2021/04/17 10:59:57;;;;;;;8.27;5.90;;;10.30;56.00;;;;;;4982042;28;20065;-65
2021/04/17 11:02:34;;;;;;;10.02;6.50;;;10.30;55.20;;;;;;4980934;28;20508;-65
2021/04/17 11:05:04;;;;;;;9.63;6.35;;;10.20;55.00;;;;;;4982272;28;20728;-65
2021/04/17 11:07:32;;;;;;;8.45;6.53;;;10.20;55.20;;;;;;4981325;28;20152;-65
2021/04/17 11:10:04;;;;;;;8.23;6.30;;;10.20;55.30;;;;;;4981319;28;20500;-65
2021/04/17 11:12:34;;;;;;;8.50;6.38;;;10.20;54.80;;;;;;4980154;28;20069;-65
2021/04/17 11:15:23;;;;;;;9.13;6.80;;;10.10;55.00;;;;;;5003490;28;20058;-65
2021/04/17 11:18:08;;;;;;;9.45;7.15;;;10.20;54.30;;;;;;4981583;28;20030;-65
2021/04/17 11:20:43;;;;;;;12.15;7.43;;;10.10;54.50;;;;;;4978159;28;20101;-65
2021/04/17 11:23:36;;;;;;;12.32;7.43;;;10.10;54.70;;;;;;4981916;28;20054;-65
2021/04/17 11:26:10;;;;;;;9.15;7.50;;;10.00;54.10;;;;;;4981568;28;20082;-64
2021/04/17 11:28:42;;;;;;;10.88;7.68;;;10.00;54.80;;;;;;4981236;28;20031;-65
2021/04/17 11:31:11;;;;;;;11.52;8.10;;;10.00;54.80;;;;;;5002884;28;20066;-65
2021/04/17 11:33:40;;;;;;;13.25;9.05;;;9.90;54.30;;;;;;4985454;28;20062;-64
2021/04/17 11:36:09;;;;;;;11.32;7.72;;;9.90;54.30;;;;;;4982297;28;20038;-65
2021/04/17 11:38:34;;;;;;;8.73;7.07;;;9.80;54.80;;;;;;4978072;28;20026;-65
2021/04/17 11:41:02;;;;;;;9.93;6.88;;;9.70;54.90;;;;;;4979584;28;20038;-62
2021/04/17 11:43:30;;;;;;;10.00;7.82;;;9.70;54.80;;;;;;4982611;28;20043;-65
2021/04/17 11:45:56;;;;;;;14.50;8.73;;;9.70;54.70;;;;;;4981710;28;20597;-65
2021/04/17 11:48:26;;;;;;;10.35;8.25;;;9.60;54.70;;;;;;4979637;28;20041;-64
2021/04/17 11:50:52;;;;;;;15.07;9.88;;;9.60;55.50;;;;;;4979035;28;20046;-65
2021/04/17 11:53:23;;;;;;;14.25;9.23;;;9.60;55.10;;;;;;4980708;28;20038;-65
2021/04/17 11:55:51;;;;;;;15.07;8.98;;;9.60;55.10;;;;;;4981682;28;20392;-65
2021/04/17 11:58:18;;;;;;;14.65;9.65;;;9.60;55.30;;;;;;4984098;28;20031;-65
2021/04/17 12:00:44;;;;;;;13.52;9.57;;;9.60;55.50;;;;;;4980794;28;20065;-65
2021/04/17 12:03:21;;;;;;;12.55;8.80;;;9.60;55.30;;;;;;4980607;28;20534;-65
2021/04/17 12:05:48;;;;;;;13.02;8.55;;;9.60;55.20;;;;;;4981945;28;20034;-65
2021/04/17 12:08:14;;;;;;;10.48;8.27;;;9.70;55.30;;;;;;4993017;28;20031;-65
2021/04/17 12:10:42;;;;;;;9.73;7.55;;;9.70;54.90;;;;;;4978243;28;20108;-65
2021/04/17 12:13:10;;;;;;;14.10;8.40;;;9.70;55.00;;;;;;4980865;28;20038;-65
2021/04/17 12:15:39;;;;;;;13.35;8.30;;;9.70;54.90;;;;;;4981196;28;20047;-65
2021/04/17 12:18:07;;;;;;;9.88;7.75;;;9.70;54.80;;;;;;4981864;28;20441;-65
2021/04/17 12:20:33;;;;;;;11.88;8.43;;;9.70;54.40;;;;;;4984148;28;20050;-64
2021/04/17 12:23:08;;;;;;;14.02;8.88;;;9.70;54.70;;;;;;4984772;28;20055;-65
2021/04/17 12:25:33;;;;;;;13.60;9.07;;;9.80;54.60;;;;;;5005990;28;20034;-65
2021/04/17 12:28:05;;;;;;;13.77;9.07;;;9.70;54.70;;;;;;4999853;28;20093;-65
2021/04/17 12:30:35;;;;;;;11.00;7.90;;;9.80;54.50;;;;;;4986535;28;20026;-65
2021/04/17 12:33:01;;;;;;;10.95;7.57;;;9.80;54.60;;;;;;5005601;28;20542;-65
2021/04/17 12:35:29;;;;;;;13.35;7.90;;;9.80;54.60;;;;;;4984972;28;20034;-65
2021/04/17 12:37:57;;;;;;;10.13;7.15;;;9.80;54.30;;;;;;4985311;28;20069;-65
2021/04/17 12:40:27;;;;;;;10.35;8.23;;;9.80;54.20;;;;;;4984183;28;20031;-65
2021/04/17 12:42:55;;;;;;;10.80;8.07;;;9.80;54.00;;;;;;4986496;28;20036;-65
2021/04/17 12:45:25;;;;;;;8.80;7.20;;;9.80;54.30;;;;;;4985320;28;20039;-65
2021/04/17 12:47:51;;;;;;;9.20;7.60;;;9.80;54.30;;;;;;4997631;28;20042;-64
2021/04/17 12:50:21;;;;;;;9.20;7.05;;;9.80;54.40;;;;;;4974590;28;20515;-64
2021/04/17 12:52:47;;;;;;;11.52;7.65;;;9.80;54.50;;;;;;4981244;28;20114;-64
2021/04/17 12:55:15;;;;;;;11.10;7.65;;;9.80;54.60;;;;;;4982311;28;20117;-64
2021/04/17 12:57:41;;;;;;;8.02;6.75;;;9.90;54.40;;;;;;4978603;28;20034;-64
2021/04/17 13:00:12;;;;;;;10.52;6.82;;;9.90;54.50;;;;;;4981229;28;20069;-64
2021/04/17 13:02:44;;;;;;;8.95;6.50;;;10.00;54.40;;;;;;4977670;28;20038;-64
2021/04/17 13:05:11;;;;;;;7.88;6.15;;;10.00;54.20;;;;;;4980268;28;20141;-65